createdAt,value
2023-02-23T00:01:35.535Z,11.20
2023-02-23T00:04:03.617Z,11.90
2023-02-23T00:06:31.516Z,11.40
2023-02-23T00:09:01.343Z,11.20
2023-02-23T00:11:29.169Z,12.10
2023-02-23T00:13:56.837Z,12.85
2023-02-23T00:16:26.182Z,12.05
2023-02-23T00:18:54.527Z,11.18
2023-02-23T00:21:29.176Z,12.27
2023-02-23T00:23:57.405Z,12.60
2023-02-23T00:26:25.981Z,12.90
2023-02-23T00:28:55.901Z,13.20
2023-02-23T00:31:25.789Z,11.23
2023-02-23T00:33:54.280Z,11.77
2023-02-23T00:36:22.471Z,11.27
2023-02-23T00:38:53.412Z,10.77
2023-02-23T00:41:23.882Z,16.00
2023-02-23T00:43:54.742Z,10.90
2023-02-23T00:46:23.034Z,11.70
2023-02-23T00:48:51.269Z,12.88
2023-02-23T00:51:19.311Z,10.82
2023-02-23T00:53:46.798Z,13.00
2023-02-23T00:56:14.811Z,9.85
2023-02-23T00:58:42.189Z,10.30
2023-02-23T01:01:10.254Z,11.52
2023-02-23T01:03:38.311Z,10.60
2023-02-23T01:06:06.401Z,10.38
2023-02-23T01:08:34.392Z,12.23
2023-02-23T01:11:09.668Z,9.95
2023-02-23T01:13:37.289Z,11.80
2023-02-23T01:16:07.925Z,10.30
2023-02-23T01:18:35.450Z,11.57
2023-02-23T01:21:03.355Z,10.30
2023-02-23T01:23:30.447Z,10.85
2023-02-23T01:25:57.767Z,10.38
2023-02-23T01:28:24.992Z,10.68
2023-02-23T01:30:52.418Z,10.63
2023-02-23T01:33:19.539Z,9.43
2023-02-23T01:35:46.714Z,10.70
2023-02-23T01:38:14.149Z,12.75
2023-02-23T01:40:43.539Z,10.43
2023-02-23T01:43:12.752Z,10.70
2023-02-23T01:45:40.784Z,8.55
2023-02-23T01:48:15.775Z,11.15
2023-02-23T01:50:49.085Z,10.45
2023-02-23T01:53:17.549Z,10.35
2023-02-23T01:55:45.321Z,9.55
2023-02-23T01:58:17.216Z,9.18
2023-02-23T02:00:47.490Z,10.07
2023-02-23T02:03:18.289Z,9.15
2023-02-23T02:05:45.681Z,10.32
2023-02-23T02:08:13.318Z,9.80
2023-02-23T02:10:43.124Z,10.85
2023-02-23T02:13:14.114Z,11.10
2023-02-23T02:15:53.744Z,8.93
2023-02-23T02:18:23.668Z,10.82
2023-02-23T02:21:11.614Z,9.63
2023-02-23T02:23:44.953Z,8.30
2023-02-23T02:26:31.184Z,10.10
2023-02-23T02:28:59.644Z,10.68
2023-02-23T02:31:36.351Z,9.70
2023-02-23T02:34:15.935Z,9.80
2023-02-23T02:36:48.387Z,9.07
2023-02-23T02:39:37.986Z,9.88
2023-02-23T02:42:14.159Z,10.02
2023-02-23T02:44:49.663Z,10.60
2023-02-23T02:47:34.952Z,8.50
2023-02-23T02:50:02.147Z,14.32
2023-02-23T02:52:31.981Z,9.23
2023-02-23T02:55:12.112Z,9.20
2023-02-23T02:57:40.461Z,10.07
2023-02-23T03:00:26.431Z,9.50
2023-02-23T03:03:12.465Z,10.23
2023-02-23T03:06:04.373Z,10.13
2023-02-23T03:08:53.118Z,10.60
2023-02-23T03:11:38.829Z,7.70
2023-02-23T03:14:30.586Z,7.25
2023-02-23T03:17:16.534Z,9.43
2023-02-23T03:20:12.587Z,8.73
2023-02-23T03:23:02.651Z,9.55
2023-02-23T03:26:02.582Z,10.38
2023-02-23T03:28:52.023Z,7.97
2023-02-23T03:31:43.092Z,8.93
2023-02-23T03:34:28.840Z,9.18
2023-02-23T03:37:20.147Z,9.02
2023-02-23T03:40:10.374Z,8.63
2023-02-23T03:42:57.427Z,8.25
2023-02-23T03:45:43.885Z,9.40
2023-02-23T03:48:31.964Z,9.57
2023-02-23T03:51:26.201Z,9.20
2023-02-23T03:54:29.622Z,9.23
2023-02-23T03:57:17.700Z,9.40
2023-02-23T04:00:06.412Z,9.50
2023-02-23T04:02:54.332Z,8.98
2023-02-23T04:05:40.951Z,8.50
2023-02-23T04:08:28.953Z,7.82
2023-02-23T04:11:20.938Z,7.78
2023-02-23T04:13:52.044Z,9.30
2023-02-23T04:16:19.295Z,6.85
2023-02-23T04:18:46.496Z,8.55
2023-02-23T04:21:13.753Z,6.85
2023-02-23T04:23:41.450Z,9.57
2023-02-23T04:26:08.551Z,9.85
2023-02-23T04:28:35.744Z,8.95
2023-02-23T04:31:03.073Z,8.88
2023-02-23T04:33:30.366Z,8.13
2023-02-23T04:35:57.475Z,7.70
2023-02-23T04:38:24.683Z,7.20
2023-02-23T04:40:52.185Z,7.63
2023-02-23T04:43:19.366Z,7.55
2023-02-23T04:45:46.764Z,8.30
2023-02-23T04:48:13.928Z,8.07
2023-02-23T04:50:41.445Z,7.82
2023-02-23T04:53:08.511Z,8.05
2023-02-23T04:55:35.626Z,7.70
2023-02-23T04:58:03.029Z,9.00
2023-02-23T05:00:31.468Z,7.93
2023-02-23T05:02:58.612Z,8.23
2023-02-23T05:05:25.899Z,7.35
2023-02-23T05:07:54.930Z,8.82
2023-02-23T05:10:22.118Z,8.85
2023-02-23T05:12:49.384Z,8.32
2023-02-23T05:15:16.549Z,9.40
2023-02-23T05:17:44.771Z,7.20
2023-02-23T05:20:12.675Z,6.78
2023-02-23T05:22:39.912Z,7.65
2023-02-23T05:25:08.758Z,8.75
2023-02-23T05:27:36.830Z,7.65
2023-02-23T05:30:04.340Z,8.45
2023-02-23T05:32:31.480Z,7.68
2023-02-23T05:34:58.716Z,8.93
2023-02-23T05:37:25.838Z,7.40
2023-02-23T05:39:53.077Z,8.68
2023-02-23T05:42:21.522Z,9.52
2023-02-23T05:44:49.135Z,7.70
2023-02-23T05:47:16.225Z,8.43
2023-02-23T05:49:46.790Z,11.88
2023-02-23T05:52:14.003Z,9.68
2023-02-23T05:54:41.179Z,9.25
2023-02-23T05:57:08.357Z,13.70
2023-02-23T05:59:35.518Z,8.00
2023-02-23T06:02:04.740Z,8.23
2023-02-23T06:04:33.818Z,10.65
2023-02-23T06:07:00.922Z,8.20
2023-02-23T06:09:28.150Z,9.95
2023-02-23T06:11:55.294Z,8.07
2023-02-23T06:14:22.444Z,6.32
2023-02-23T06:16:49.597Z,6.85
2023-02-23T06:19:19.104Z,7.80
2023-02-23T06:21:46.727Z,8.68
2023-02-23T06:24:13.812Z,8.98
2023-02-23T06:26:43.437Z,6.60
2023-02-23T06:29:12.078Z,9.02
2023-02-23T06:31:39.546Z,7.43
2023-02-23T06:34:06.818Z,7.20
2023-02-23T06:36:34.129Z,6.93
2023-02-23T06:39:02.168Z,9.05
2023-02-23T06:41:29.302Z,7.07
2023-02-23T06:43:56.494Z,8.38
2023-02-23T06:46:24.656Z,9.85
2023-02-23T06:48:55.674Z,9.85
2023-02-23T06:51:22.879Z,9.10
2023-02-23T06:53:53.496Z,9.85
2023-02-23T06:56:20.716Z,7.05
2023-02-23T06:58:48.714Z,6.82
2023-02-23T07:01:16.362Z,7.15
2023-02-23T07:03:43.741Z,7.15
2023-02-23T07:06:10.909Z,6.13
2023-02-23T07:08:38.737Z,6.97
2023-02-23T07:11:08.789Z,7.13
2023-02-23T07:13:37.615Z,7.03
2023-02-23T07:16:04.895Z,6.90
2023-02-23T07:18:32.241Z,6.90
2023-02-23T07:20:59.400Z,6.70
2023-02-23T07:23:26.784Z,6.40
2023-02-23T07:25:56.573Z,7.15
2023-02-23T07:28:24.193Z,6.70
2023-02-23T07:30:51.445Z,5.82
2023-02-23T07:33:18.789Z,8.85
2023-02-23T07:35:45.912Z,7.78
2023-02-23T07:38:13.577Z,7.60
2023-02-23T07:40:40.859Z,6.72
2023-02-23T07:43:08.316Z,7.22
2023-02-23T07:45:35.506Z,7.20
2023-02-23T07:48:02.888Z,8.20
2023-02-23T07:50:30.047Z,6.75
2023-02-23T07:52:57.210Z,6.13
2023-02-23T07:55:24.344Z,7.07
2023-02-23T07:57:51.489Z,6.53
2023-02-23T08:00:18.811Z,6.72
2023-02-23T08:02:48.155Z,6.28
2023-02-23T08:05:15.272Z,6.80
2023-02-23T08:07:44.678Z,6.25
2023-02-23T08:10:12.210Z,6.15
2023-02-23T08:12:39.421Z,6.30
2023-02-23T08:15:08.298Z,5.82
2023-02-23T08:17:38.787Z,6.55
2023-02-23T08:20:06.901Z,5.95
2023-02-23T08:22:48.302Z,7.18
2023-02-23T08:25:16.526Z,5.28
2023-02-23T08:27:43.638Z,5.95
2023-02-23T08:30:11.163Z,6.68
2023-02-23T08:32:38.400Z,8.57
2023-02-23T08:35:06.849Z,6.25
2023-02-23T08:37:34.444Z,7.15
2023-02-23T08:40:01.559Z,5.40
2023-02-23T08:42:29.165Z,6.78
2023-02-23T08:44:56.296Z,5.68
2023-02-23T08:47:24.264Z,7.15
2023-02-23T08:49:51.623Z,7.18
2023-02-23T08:52:18.772Z,6.88
2023-02-23T08:54:45.870Z,7.38
2023-02-23T08:57:13.166Z,10.55
2023-02-23T08:59:41.232Z,5.43
2023-02-23T09:02:12.292Z,6.72
2023-02-23T09:04:41.844Z,6.05
2023-02-23T09:07:10.234Z,7.20
2023-02-23T09:09:37.407Z,7.45
2023-02-23T09:12:04.561Z,7.05
2023-02-23T09:14:32.336Z,6.32
2023-02-23T09:16:59.474Z,5.75
2023-02-23T09:19:27.560Z,8.90
2023-02-23T09:21:54.903Z,5.53
2023-02-23T09:24:22.498Z,5.50
2023-02-23T09:26:49.884Z,5.82
2023-02-23T09:29:17.192Z,7.90
2023-02-23T09:31:44.531Z,6.80
2023-02-23T09:34:12.679Z,7.50
2023-02-23T09:36:39.785Z,6.43
2023-02-23T09:39:07.119Z,7.82
2023-02-23T09:41:40.105Z,6.95
2023-02-23T09:44:22.673Z,5.28
2023-02-23T09:46:54.131Z,5.13
2023-02-23T09:49:24.198Z,5.72
2023-02-23T09:51:57.482Z,6.30
2023-02-23T09:54:25.875Z,5.60
2023-02-23T09:56:56.266Z,7.07
2023-02-23T09:59:23.770Z,7.82
2023-02-23T10:01:57.280Z,5.95
2023-02-23T10:04:24.706Z,5.43
2023-02-23T10:07:07.783Z,5.60
2023-02-23T10:09:46.616Z,5.72
2023-02-23T10:12:23.646Z,7.05
2023-02-23T10:15:13.883Z,6.63
2023-02-23T10:17:46.663Z,5.78
2023-02-23T10:20:35.889Z,5.68
2023-02-23T10:23:05.224Z,6.18
2023-02-23T10:25:35.538Z,5.50
2023-02-23T10:28:03.299Z,5.60
2023-02-23T10:30:31.829Z,4.65
2023-02-23T10:33:14.524Z,6.68
2023-02-23T10:35:41.672Z,7.47
2023-02-23T10:38:14.734Z,5.20
2023-02-23T10:40:42.304Z,6.45
2023-02-23T10:43:12.059Z,4.95
2023-02-23T10:45:42.348Z,4.75
2023-02-23T10:48:10.252Z,5.47
2023-02-23T10:50:39.200Z,6.03
2023-02-23T10:55:34.558Z,5.05
2023-02-23T10:58:09.494Z,5.07
2023-02-23T11:00:39.913Z,5.32
2023-02-23T11:03:28.663Z,5.10
2023-02-23T11:05:56.112Z,4.72
2023-02-23T11:08:25.263Z,5.55
2023-02-23T11:11:16.041Z,5.53
2023-02-23T11:13:47.248Z,6.10
2023-02-23T11:16:25.561Z,4.90
2023-02-23T11:18:55.691Z,6.65
2023-02-23T11:21:43.160Z,4.82
2023-02-23T11:26:39.252Z,5.45
2023-02-23T11:29:15.454Z,4.70
2023-02-23T11:31:47.884Z,6.07
2023-02-23T11:34:21.268Z,5.85
2023-02-23T11:36:58.167Z,5.07
2023-02-23T11:39:25.486Z,6.53
2023-02-23T11:42:11.669Z,6.13
2023-02-23T11:44:39.064Z,5.20
2023-02-23T11:47:06.211Z,7.25
2023-02-23T11:49:37.210Z,5.70
2023-02-23T11:52:04.469Z,4.95
2023-02-23T11:54:35.374Z,6.00
2023-02-23T11:57:04.279Z,5.55
2023-02-23T12:02:07.274Z,4.68
2023-02-23T12:04:37.335Z,4.88
2023-02-23T12:07:23.405Z,5.05
2023-02-23T12:09:54.129Z,5.00
2023-02-23T12:12:22.645Z,3.97
2023-02-23T12:14:56.554Z,4.40
2023-02-23T12:17:28.364Z,4.47
2023-02-23T12:20:04.566Z,4.45
2023-02-23T12:22:43.454Z,4.47
2023-02-23T12:25:24.616Z,4.43
2023-02-23T12:28:05.060Z,6.43
2023-02-23T12:30:44.347Z,6.22
2023-02-23T12:33:17.493Z,4.18
2023-02-23T12:36:05.450Z,5.75
2023-02-23T12:38:33.289Z,5.38
2023-02-23T12:41:04.362Z,3.42
2023-02-23T12:43:38.644Z,4.57
2023-02-23T12:46:08.404Z,4.10
2023-02-23T12:48:39.614Z,4.10
2023-02-23T12:51:12.930Z,4.45
2023-02-23T12:53:44.354Z,4.05
2023-02-23T12:56:35.546Z,3.63
2023-02-23T12:59:21.931Z,3.40
2023-02-23T13:01:51.904Z,4.07
2023-02-23T13:04:25.206Z,4.72
2023-02-23T13:06:59.335Z,4.03
2023-02-23T13:09:49.903Z,3.80
2023-02-23T13:12:41.448Z,3.42
2023-02-23T13:15:24.110Z,4.50
2023-02-23T13:18:13.393Z,3.53
2023-02-23T13:21:06.883Z,3.80
2023-02-23T13:26:03.616Z,4.05
2023-02-23T13:28:51.980Z,4.45
2023-02-23T13:31:24.480Z,4.25
2023-02-23T13:33:52.431Z,3.60
2023-02-23T13:36:20.720Z,5.30
2023-02-23T13:39:18.526Z,3.38
2023-02-23T13:42:08.388Z,3.33
2023-02-23T13:44:40.967Z,3.53
2023-02-23T13:47:18.746Z,3.90
2023-02-23T13:49:46.526Z,3.38
2023-02-23T13:52:20.067Z,3.20
2023-02-23T13:55:03.559Z,3.05
2023-02-23T13:57:31.632Z,4.22
2023-02-23T13:59:59.099Z,3.28
2023-02-23T14:02:28.916Z,3.42
2023-02-23T14:05:02.596Z,3.03
2023-02-23T14:07:31.372Z,3.45
2023-02-23T14:10:09.086Z,3.10
2023-02-23T14:12:40.810Z,2.92
2023-02-23T14:15:27.939Z,3.10
2023-02-23T14:17:59.304Z,3.60
2023-02-23T14:20:45.572Z,3.55
2023-02-23T14:23:28.287Z,3.45
2023-02-23T14:26:16.047Z,3.13
2023-02-23T14:28:44.362Z,4.68
2023-02-23T14:31:11.561Z,3.45
2023-02-23T14:33:49.205Z,4.05
2023-02-23T14:36:22.359Z,3.08
2023-02-23T14:39:00.329Z,3.78
2023-02-23T14:41:36.441Z,2.70
2023-02-23T14:44:28.240Z,3.47
2023-02-23T14:47:09.817Z,3.47
2023-02-23T14:49:40.719Z,3.25
2023-02-23T14:52:15.590Z,2.60
2023-02-23T14:54:42.853Z,4.20
2023-02-23T14:57:24.025Z,3.70
2023-02-23T15:02:18.383Z,3.13
2023-02-23T15:04:46.340Z,3.10
2023-02-23T15:07:25.343Z,3.22
2023-02-23T15:09:53.976Z,3.50
2023-02-23T15:12:28.412Z,3.10
2023-02-23T15:15:00.691Z,3.25
2023-02-23T15:17:32.057Z,3.35
2023-02-23T15:20:14.795Z,3.00
2023-02-23T15:22:43.498Z,3.15
2023-02-23T15:25:18.034Z,2.40
2023-02-23T15:27:46.436Z,5.85
2023-02-23T15:30:30.760Z,5.13
2023-02-23T15:33:05.529Z,6.55
2023-02-23T15:35:38.010Z,4.90
2023-02-23T15:38:18.184Z,6.00
2023-02-23T15:40:54.991Z,3.35
2023-02-23T15:43:22.273Z,7.10
2023-02-23T15:45:54.763Z,5.30
2023-02-23T15:48:23.505Z,4.47
2023-02-23T15:50:53.092Z,3.10
2023-02-23T15:53:23.400Z,3.67
2023-02-23T15:55:51.581Z,4.28
2023-02-23T15:58:19.799Z,2.80
2023-02-23T16:00:51.418Z,3.38
2023-02-23T16:03:33.389Z,3.55
2023-02-23T16:06:24.719Z,3.45
2023-02-23T16:08:59.104Z,4.35
2023-02-23T16:11:26.546Z,5.03
2023-02-23T16:13:55.134Z,3.60
2023-02-23T16:16:25.196Z,3.78
2023-02-23T16:18:54.204Z,3.35
2023-02-23T16:23:50.385Z,6.00
2023-02-23T16:26:24.103Z,3.72
2023-02-23T16:28:55.433Z,4.30
2023-02-23T16:31:28.119Z,3.63
2023-02-23T16:33:57.208Z,3.47
2023-02-23T16:36:25.847Z,3.03
2023-02-23T16:38:52.936Z,3.22
2023-02-23T16:41:21.433Z,3.10
2023-02-23T16:43:49.801Z,3.60
2023-02-23T16:46:18.363Z,3.97
2023-02-23T16:48:45.986Z,4.05
2023-02-23T16:51:17.185Z,3.90
2023-02-23T16:53:44.809Z,4.93
2023-02-23T16:56:15.292Z,4.05
2023-02-23T16:58:43.898Z,2.80
2023-02-23T17:01:14.495Z,5.22
2023-02-23T17:03:52.410Z,4.50
2023-02-23T17:06:20.630Z,3.70
2023-02-23T17:08:57.557Z,3.80
2023-02-23T17:11:25.621Z,4.53
2023-02-23T17:13:52.738Z,4.00
2023-02-23T17:16:20.280Z,4.78
2023-02-23T17:18:48.883Z,4.22
2023-02-23T17:21:22.976Z,3.53
2023-02-23T17:23:51.185Z,3.20
2023-02-23T17:26:19.898Z,5.10
2023-02-23T17:28:47.361Z,4.25
2023-02-23T17:31:15.403Z,3.78
2023-02-23T17:33:42.534Z,5.50
2023-02-23T17:36:11.462Z,5.00
2023-02-23T17:41:08.031Z,9.32
2023-02-23T17:43:37.792Z,7.65
2023-02-23T17:46:05.588Z,9.05
2023-02-23T17:48:35.426Z,7.68
2023-02-23T17:51:08.668Z,3.80
2023-02-23T17:53:35.811Z,5.97
2023-02-23T17:56:03.039Z,5.40
2023-02-23T17:58:30.656Z,3.72
2023-02-23T18:00:58.822Z,7.97
2023-02-23T18:03:31.781Z,5.95
2023-02-23T18:06:02.240Z,7.70
2023-02-23T18:08:29.779Z,5.40
2023-02-23T18:10:57.128Z,7.05
2023-02-23T18:13:24.921Z,4.57
2023-02-23T18:15:52.960Z,5.95
2023-02-23T18:18:20.917Z,4.75
2023-02-23T18:21:10.547Z,7.00
2023-02-23T18:23:37.699Z,4.82
2023-02-23T18:26:11.969Z,6.97
2023-02-23T18:28:41.195Z,5.78
2023-02-23T18:31:08.583Z,6.75
2023-02-23T18:33:35.886Z,4.63
2023-02-23T18:36:04.138Z,9.55
2023-02-23T18:38:31.462Z,5.28
2023-02-23T18:40:58.831Z,6.75
2023-02-23T18:43:25.946Z,6.38
2023-02-23T18:45:53.130Z,6.40
2023-02-23T18:48:20.619Z,6.50
2023-02-23T18:50:48.112Z,6.45
2023-02-23T18:53:15.497Z,5.97
2023-02-23T18:55:44.554Z,5.60
2023-02-23T18:58:11.707Z,5.75
2023-02-23T19:00:43.494Z,5.78
2023-02-23T19:03:11.216Z,7.20
2023-02-23T19:05:38.392Z,6.05
2023-02-23T19:08:11.540Z,5.90
2023-02-23T19:10:38.645Z,4.07
2023-02-23T19:13:08.942Z,5.95
2023-02-23T19:15:36.574Z,6.32
2023-02-23T19:18:04.090Z,7.28
2023-02-23T19:20:35.609Z,4.93
2023-02-23T19:23:03.940Z,4.90
2023-02-23T19:25:31.437Z,5.43
2023-02-23T19:27:58.712Z,6.53
2023-02-23T19:30:25.974Z,5.80
2023-02-23T19:32:53.278Z,7.05
2023-02-23T19:35:20.762Z,6.05
2023-02-23T19:37:51.998Z,6.60
2023-02-23T19:40:22.758Z,7.57
2023-02-23T19:42:50.945Z,7.82
2023-02-23T19:45:18.893Z,8.93
2023-02-23T19:47:47.472Z,5.72
2023-02-23T19:50:19.071Z,8.85
2023-02-23T19:52:47.106Z,8.48
2023-02-23T19:55:14.885Z,7.20
2023-02-23T19:57:42.733Z,9.82
2023-02-23T20:00:13.361Z,9.07
2023-02-23T20:02:43.968Z,10.35
2023-02-23T20:05:12.113Z,6.35
2023-02-23T20:07:39.793Z,12.05
2023-02-23T20:10:08.613Z,9.07
2023-02-23T20:12:36.070Z,6.10
2023-02-23T20:15:03.467Z,8.38
2023-02-23T20:17:30.592Z,15.40
2023-02-23T20:19:57.764Z,7.18
2023-02-23T20:22:24.924Z,7.10
2023-02-23T20:24:52.096Z,7.95
2023-02-23T20:27:22.557Z,7.80
2023-02-23T20:29:50.997Z,8.38
2023-02-23T20:32:18.339Z,7.18
2023-02-23T20:34:45.985Z,10.13
2023-02-23T20:37:13.487Z,6.88
2023-02-23T20:39:40.609Z,9.63
2023-02-23T20:42:07.823Z,11.10
2023-02-23T20:44:35.069Z,7.00
2023-02-23T20:47:02.456Z,5.60
2023-02-23T20:49:29.744Z,6.20
2023-02-23T20:51:56.907Z,5.97
2023-02-23T20:54:24.075Z,10.05
2023-02-23T20:57:07.242Z,11.88
2023-02-23T20:59:36.472Z,10.57
2023-02-23T21:02:04.009Z,6.30
2023-02-23T21:04:32.090Z,7.57
2023-02-23T21:07:00.215Z,6.35
2023-02-23T21:09:27.591Z,7.43
2023-02-23T21:11:55.199Z,8.60
2023-02-23T21:14:22.490Z,7.15
2023-02-23T21:16:49.687Z,7.60
2023-02-23T21:19:17.758Z,7.45
2023-02-23T21:21:47.033Z,7.30
2023-02-23T21:24:15.792Z,6.80
2023-02-23T21:26:43.353Z,8.93
2023-02-23T21:29:14.935Z,5.85
2023-02-23T21:31:43.275Z,10.15
2023-02-23T21:34:11.084Z,9.05
2023-02-23T21:36:38.676Z,7.22
2023-02-23T21:39:06.744Z,7.78
2023-02-23T21:41:34.257Z,7.20
2023-02-23T21:44:02.194Z,6.55
2023-02-23T21:46:29.455Z,8.38
2023-02-23T21:48:56.666Z,5.60
2023-02-23T21:51:23.745Z,4.82
2023-02-23T21:53:51.579Z,6.68
2023-02-23T21:56:21.151Z,5.63
2023-02-23T21:58:52.909Z,4.88
2023-02-23T22:01:22.065Z,7.20
2023-02-23T22:03:49.825Z,6.82
2023-02-23T22:06:21.220Z,4.50
2023-02-23T22:08:51.922Z,5.82
2023-02-23T22:11:20.915Z,6.90
2023-02-23T22:13:49.328Z,6.22
2023-02-23T22:16:18.678Z,4.03
2023-02-23T22:18:46.379Z,8.85
2023-02-23T22:21:13.638Z,6.07
2023-02-23T22:23:41.693Z,5.30
2023-02-23T22:26:09.139Z,7.63
2023-02-23T22:28:36.808Z,6.10
2023-02-23T22:31:08.267Z,5.57
2023-02-23T22:33:40.546Z,9.23
2023-02-23T22:36:10.352Z,6.30
2023-02-23T22:38:38.143Z,6.82
2023-02-23T22:41:11.756Z,5.88
2023-02-23T22:43:39.587Z,6.53
2023-02-23T22:46:08.160Z,5.70
2023-02-23T22:48:36.083Z,6.57
2023-02-23T22:51:03.430Z,7.10
2023-02-23T22:53:30.758Z,5.88
2023-02-23T22:55:58.161Z,6.88
2023-02-23T22:58:26.449Z,6.28
2023-02-23T23:01:04.606Z,6.60
2023-02-23T23:03:36.456Z,4.55
2023-02-23T23:06:04.770Z,5.03
2023-02-23T23:08:36.507Z,4.85
2023-02-23T23:11:13.469Z,4.07
2023-02-23T23:13:44.542Z,4.03
2023-02-23T23:16:25.367Z,6.40
2023-02-23T23:19:02.301Z,4.25
2023-02-23T23:21:30.688Z,7.30
2023-02-23T23:23:58.831Z,6.97
2023-02-23T23:26:27.240Z,5.97
2023-02-23T23:28:55.650Z,7.35
2023-02-23T23:31:28.035Z,3.65
2023-02-23T23:33:59.811Z,7.93
2023-02-23T23:36:28.962Z,6.45
2023-02-23T23:38:57.309Z,5.05
2023-02-23T23:41:25.780Z,4.55
2023-02-23T23:43:54.704Z,5.15
2023-02-23T23:49:11.703Z,5.82
2023-02-23T23:51:44.728Z,6.38
2023-02-23T23:54:20.014Z,4.32
2023-02-23T23:56:47.269Z,9.05
2023-02-23T23:59:16.374Z,7.60
